Time;durP1;ratioP1;P1;durP2;ratioP2;P2;SDS_P1;SDS_P2;PMS_P1;PMS_P2;Temp;Humidity;BMP_temperature;BMP_pressure;BME280_temperature;BME280_humidity;BME280_pressure;Samples;Min_cycle;Max_cycle;Signal;HPM_P1;HPM_P2
2023/11/11 00:01:38;;;;;;;20.20;11.90;;;;;;;7.33;84.47;99035.27;1708916;84;25469;-75
2023/11/11 00:04:05;;;;;;;22.98;12.68;;;;;;;7.33;84.48;99036.05;1709834;84;25650;-78
2023/11/11 00:06:32;;;;;;;19.40;11.60;;;;;;;7.33;84.57;99030.66;1709185;83;25627;-76
2023/11/11 00:08:59;;;;;;;21.52;12.40;;;;;;;7.33;84.64;99019.13;1709046;83;25644;-75
2023/11/11 00:11:26;;;;;;;21.17;13.25;;;;;;;7.33;84.68;99021.25;1709203;84;27338;-75
2023/11/11 00:13:52;;;;;;;20.35;12.00;;;;;;;7.33;84.74;99022.59;1708874;83;25580;-72
2023/11/11 00:16:20;;;;;;;22.48;13.30;;;;;;;7.34;84.83;99015.30;1683426;84;25601;-75
2023/11/11 00:18:46;;;;;;;19.48;12.20;;;;;;;7.34;84.96;99004.55;1708968;84;25689;-74
2023/11/11 00:21:13;;;;;;;18.45;12.10;;;;;;;7.35;84.90;99006.92;1709012;83;25621;-72
2023/11/11 00:23:39;;;;;;;19.20;12.50;;;;;;;7.38;84.98;99002.25;1708952;84;27390;-72
2023/11/11 00:26:06;;;;;;;18.70;12.15;;;;;;;7.39;84.94;99001.16;1708913;84;25683;-73
2023/11/11 00:28:33;;;;;;;18.25;10.93;;;;;;;7.42;84.88;99005.09;1716233;83;25473;-74
2023/11/11 00:31:00;;;;;;;19.40;12.70;;;;;;;7.41;85.00;99004.31;1690819;84;25648;-73
2023/11/11 00:33:27;;;;;;;19.32;12.28;;;;;;;7.41;85.10;98998.94;1690868;84;25652;-75
2023/11/11 00:35:54;;;;;;;19.23;11.95;;;;;;;7.41;85.19;99000.27;1690805;84;27319;-74
2023/11/11 00:38:20;;;;;;;21.20;12.95;;;;;;;7.43;85.22;99000.74;1690737;84;25617;-74
2023/11/11 00:40:47;;;;;;;21.70;12.95;;;;;;;7.43;85.47;99003.43;1690872;84;25467;-75
2023/11/11 00:43:13;;;;;;;19.30;12.37;;;;;;;7.41;85.44;99000.27;1690828;83;25662;-76
2023/11/11 00:45:40;;;;;;;22.25;12.80;;;;;;;7.41;85.46;98996.23;1690874;84;25394;-75
2023/11/11 00:48:06;;;;;;;21.33;12.98;;;;;;;7.39;85.53;98995.78;1691004;84;27338;-76
2023/11/11 00:50:33;;;;;;;19.73;13.93;;;;;;;7.36;85.63;98996.97;1690756;83;25678;-75
2023/11/11 00:52:59;;;;;;;22.27;12.70;;;;;;;7.34;85.81;98997.82;1690871;83;25573;-74
2023/11/11 00:55:27;;;;;;;18.55;12.73;;;;;;;7.33;86.12;98997.60;1690941;83;26313;-74
2023/11/11 00:57:53;;;;;;;18.32;12.28;;;;;;;7.34;86.29;99002.66;1692396;84;25636;-73
2023/11/11 01:00:21;;;;;;;21.23;13.58;;;;;;;7.34;86.33;99002.66;1692853;84;27364;-73
2023/11/11 01:02:51;;;;;;;21.73;13.03;;;;;;;7.32;86.45;98996.82;1692827;83;25620;-73
2023/11/11 01:05:18;;;;;;;19.10;12.95;;;;;;;7.28;86.47;98987.23;1693191;83;25575;-74
2023/11/11 01:07:45;;;;;;;22.37;12.85;;;;;;;7.31;86.39;98982.34;1692248;84;25671;-76
2023/11/11 01:10:12;;;;;;;22.27;13.30;;;;;;;7.31;86.50;98975.62;1690363;83;25673;-76
2023/11/11 01:12:57;;;;;;;19.23;13.00;;;;;;;7.33;86.62;98974.73;1690938;84;27328;-72
2023/11/11 01:15:24;;;;;;;20.25;13.08;;;;;;;7.34;86.83;98978.45;1691001;83;25647;-72
2023/11/11 01:17:50;;;;;;;22.37;13.32;;;;;;;7.34;86.63;98972.27;1690928;84;25482;-73
2023/11/11 01:20:17;;;;;;;21.17;13.75;;;;;;;7.35;86.80;98971.95;1691567;84;25673;-74
2023/11/11 01:22:43;;;;;;;21.97;12.98;;;;;;;7.33;86.67;98968.80;1692070;84;25640;-74
2023/11/11 01:25:12;;;;;;;19.40;13.60;;;;;;;7.34;86.77;98966.35;1692100;84;27332;-74
2023/11/11 01:27:40;;;;;;;20.15;12.25;;;;;;;7.35;86.74;98964.44;1691018;83;25419;-74
2023/11/11 01:30:08;;;;;;;20.70;13.13;;;;;;;7.36;87.11;98960.09;1689099;84;25419;-74
2023/11/11 01:32:35;;;;;;;23.10;13.20;;;;;;;7.36;86.85;98962.00;1689313;84;25651;-74
2023/11/11 01:35:01;;;;;;;21.37;14.23;;;;;;;7.37;86.92;98954.96;1689065;85;25670;-74
2023/11/11 01:37:29;;;;;;;21.15;13.70;;;;;;;7.36;87.04;98953.94;1689090;84;27350;-75
2023/11/11 01:39:57;;;;;;;23.55;13.83;;;;;;;7.34;86.95;98945.37;1689021;84;25691;-74
2023/11/11 01:42:24;;;;;;;20.70;13.48;;;;;;;7.33;87.15;98941.12;1689337;84;25489;-74
2023/11/11 01:44:51;;;;;;;25.23;14.68;;;;;;;7.29;87.16;98946.34;1689048;85;25634;-74
2023/11/11 01:47:18;;;;;;;22.45;13.80;;;;;;;7.26;87.21;98941.04;1689092;84;25447;-74
2023/11/11 01:49:45;;;;;;;21.50;13.70;;;;;;;7.26;87.18;98937.56;1689059;85;27348;-74
2023/11/11 01:52:12;;;;;;;20.85;13.22;;;;;;;7.26;87.44;98941.60;1689156;84;25642;-74
2023/11/11 01:54:40;;;;;;;22.42;13.80;;;;;;;7.27;87.71;98944.51;1691309;84;25258;-73
2023/11/11 01:57:08;;;;;;;21.33;14.05;;;;;;;7.26;87.49;98938.91;1691317;85;25597;-72
2023/11/11 01:59:38;;;;;;;22.20;13.58;;;;;;;7.27;87.64;98944.51;1690777;85;25208;-73
2023/11/11 02:02:04;;;;;;;25.30;14.65;;;;;;;7.27;87.74;98935.09;1689932;84;28130;-75
2023/11/11 02:04:31;;;;;;;28.95;14.75;;;;;;;7.25;87.69;98939.47;1689246;84;25679;-74
2023/11/11 02:06:58;;;;;;;24.35;14.30;;;;;;;7.25;87.80;98938.66;1689422;85;25648;-74
2023/11/11 02:09:25;;;;;;;20.17;14.03;;;;;;;7.24;87.83;98939.80;1689530;85;26332;-73
2023/11/11 02:11:57;;;;;;;21.65;15.18;;;;;;;7.22;87.89;98940.11;1689433;84;25255;-73
2023/11/11 02:14:24;;;;;;;23.50;13.62;;;;;;;7.20;87.86;98933.45;1689248;84;27354;-74
2023/11/11 02:16:51;;;;;;;20.82;13.60;;;;;;;7.20;88.02;98930.23;1689092;85;25702;-74
2023/11/11 02:19:18;;;;;;;22.65;13.75;;;;;;;7.20;88.04;98928.08;1689209;85;25470;-74
2023/11/11 02:21:47;;;;;;;23.60;15.13;;;;;;;7.19;88.11;98931.33;1689162;84;25581;-72
2023/11/11 02:24:13;;;;;;;20.80;14.03;;;;;;;7.17;88.11;98934.90;1689486;84;25567;-72
2023/11/11 02:26:40;;;;;;;22.52;14.05;;;;;;;7.18;88.23;98937.02;1689279;84;27509;-71
2023/11/11 02:29:08;;;;;;;21.85;14.47;;;;;;;7.16;88.59;98926.58;1688875;84;25884;-71
2023/11/11 02:31:35;;;;;;;23.57;14.15;;;;;;;7.09;88.50;98921.69;1688687;85;25437;-71
2023/11/11 02:34:02;;;;;;;21.87;15.43;;;;;;;7.07;88.76;98927.16;1688655;85;25641;-71
2023/11/11 02:36:30;;;;;;;22.62;13.70;;;;;;;7.05;88.90;98926.70;1688673;84;25622;-70
2023/11/11 02:38:56;;;;;;;22.77;14.15;;;;;;;7.02;89.30;98924.64;1688690;85;27342;-70
2023/11/11 02:41:24;;;;;;;24.70;15.10;;;;;;;7.00;89.18;98930.86;1688606;85;25647;-70
2023/11/11 02:43:51;;;;;;;27.42;15.78;;;;;;;6.98;89.32;98927.18;1688687;85;25489;-70
2023/11/11 02:46:17;;;;;;;23.05;14.38;;;;;;;6.95;89.27;98932.38;1688723;85;25621;-70
2023/11/11 02:48:44;;;;;;;21.87;14.98;;;;;;;6.94;89.61;98928.13;1688699;85;25630;-70
2023/11/11 02:51:11;;;;;;;24.80;14.85;;;;;;;6.92;89.61;98925.19;1688665;85;27327;-70
2023/11/11 02:53:38;;;;;;;22.00;14.53;;;;;;;6.94;89.74;98919.49;1688598;84;25425;-70
2023/11/11 02:56:06;;;;;;;22.65;14.45;;;;;;;6.94;89.66;98918.71;1688620;84;25595;-68
2023/11/11 02:58:34;;;;;;;24.35;14.78;;;;;;;6.95;89.97;98921.62;1688640;84;26299;-68
2023/11/11 03:01:02;;;;;;;25.88;14.93;;;;;;;6.95;90.04;98918.93;1688680;85;25459;-67
2023/11/11 03:03:30;;;;;;;23.15;15.18;;;;;;;6.96;90.22;98913.80;1688697;85;27375;-69
2023/11/11 03:05:57;;;;;;;23.57;15.57;;;;;;;6.93;90.11;98920.62;1688838;84;25442;-69
2023/11/11 03:08:25;;;;;;;21.82;14.25;;;;;;;6.94;90.17;98919.49;1688662;85;25659;-68
2023/11/11 03:10:53;;;;;;;22.73;15.23;;;;;;;6.93;90.32;98919.28;1688622;85;26259;-68
2023/11/11 03:13:20;;;;;;;29.02;15.93;;;;;;;6.92;90.34;98916.34;1688669;85;25680;-67
2023/11/11 03:15:49;;;;;;;23.42;15.08;;;;;;;6.93;90.43;98919.28;1688597;85;27455;-67
2023/11/11 03:18:16;;;;;;;23.02;14.50;;;;;;;6.93;90.56;98912.55;1688539;85;25900;-67
2023/11/11 03:20:44;;;;;;;25.92;15.48;;;;;;;6.93;90.61;98915.25;1688674;84;25443;-67
2023/11/11 03:23:12;;;;;;;25.10;14.35;;;;;;;6.92;90.71;98914.44;1688603;85;26309;-67
2023/11/11 03:25:39;;;;;;;24.23;15.25;;;;;;;6.91;90.76;98907.50;1688690;84;25485;-67
2023/11/11 03:28:08;;;;;;;22.25;14.63;;;;;;;6.92;90.81;98908.27;1688638;85;27693;-67
2023/11/11 03:30:36;;;;;;;23.80;14.75;;;;;;;6.92;90.80;98915.78;1690598;83;25887;-67
2023/11/11 03:33:03;;;;;;;24.77;15.68;;;;;;;6.94;90.96;98912.77;1690933;83;25454;-67
2023/11/11 03:35:31;;;;;;;22.70;15.43;;;;;;;6.95;90.93;98913.55;1690834;83;26202;-68
2023/11/11 03:37:59;;;;;;;27.62;15.98;;;;;;;6.92;90.95;98908.27;1690921;83;25475;-68
2023/11/11 03:40:26;;;;;;;25.15;15.58;;;;;;;6.92;91.01;98912.30;1690877;84;27342;-68
2023/11/11 03:42:53;;;;;;;22.73;15.30;;;;;;;6.92;91.12;98912.30;1690773;84;25702;-68
2023/11/11 03:45:21;;;;;;;26.55;16.90;;;;;;;6.92;91.29;98910.40;1690882;84;25583;-68
2023/11/11 03:47:52;;;;;;;24.95;14.98;;;;;;;6.94;91.28;98908.74;1690847;83;25823;-66
2023/11/11 03:50:18;;;;;;;25.77;15.80;;;;;;;6.96;91.24;98909.77;1690935;84;30464;-66
2023/11/11 03:52:46;;;;;;;25.80;15.20;;;;;;;6.97;91.50;98907.33;1690847;84;27338;-65
2023/11/11 03:55:14;;;;;;;26.50;16.27;;;;;;;6.94;91.39;98908.74;1690769;84;25788;-66
2023/11/11 03:57:41;;;;;;;26.68;15.90;;;;;;;6.91;91.48;98914.75;1690953;84;25659;-66
2023/11/11 04:00:16;;;;;;;26.40;15.72;;;;;;;6.89;91.48;98916.41;1690849;83;26601;-66
2023/11/11 04:02:39;;;;;;;25.95;16.32;;;;;;;6.88;91.69;98916.19;1690626;84;25480;-66
2023/11/11 04:05:11;;;;;;;26.33;16.95;;;;;;;6.88;91.87;98918.87;1690853;84;28232;-66
2023/11/11 04:07:40;;;;;;;29.12;16.80;;;;;;;6.87;91.92;98915.94;1690733;84;25757;-67
2023/11/11 04:10:08;;;;;;;27.48;16.93;;;;;;;6.85;92.17;98910.09;1690484;84;25458;-66
2023/11/11 04:12:36;;;;;;;25.75;17.27;;;;;;;6.83;92.19;98910.98;1690833;84;25669;-66
2023/11/11 04:15:05;;;;;;;29.25;19.15;;;;;;;6.82;92.31;98908.60;1690841;84;25663;-66
2023/11/11 04:17:32;;;;;;;27.65;18.75;;;;;;;6.79;92.38;98907.33;1690985;83;27347;-67
2023/11/11 04:20:00;;;;;;;26.85;17.50;;;;;;;6.78;92.50;98905.77;1690746;84;25609;-66
2023/11/11 04:22:28;;;;;;;27.95;17.50;;;;;;;6.73;92.63;98901.33;1690859;83;25659;-65
2023/11/11 04:24:56;;;;;;;31.65;18.10;;;;;;;6.72;92.72;98909.70;1690799;83;26469;-64
2023/11/11 04:27:23;;;;;;;27.95;17.05;;;;;;;6.73;92.84;98907.27;1678964;84;25615;-64
2023/11/11 04:29:52;;;;;;;28.80;18.05;;;;;;;6.72;92.95;98911.05;1690817;83;28281;-65
2023/11/11 04:32:21;;;;;;;30.27;18.12;;;;;;;6.69;92.99;98901.73;1690774;84;25497;-65
2023/11/11 04:34:50;;;;;;;33.45;19.75;;;;;;;6.67;93.17;98902.59;1690935;84;25565;-65
2023/11/11 04:37:19;;;;;;;29.70;18.40;;;;;;;6.64;93.23;98901.89;1691038;84;25648;-64
2023/11/11 04:39:46;;;;;;;30.12;19.07;;;;;;;6.63;93.45;98892.25;1690980;84;25402;-65
2023/11/11 04:42:17;;;;;;;35.95;19.20;;;;;;;6.63;93.45;98892.25;1690846;84;27981;-65
2023/11/11 04:44:45;;;;;;;30.55;18.98;;;;;;;6.60;93.51;98893.44;1690794;84;25568;-65
2023/11/11 04:47:12;;;;;;;30.57;19.12;;;;;;;6.57;93.58;98898.88;1690818;84;25660;-65
2023/11/11 04:49:40;;;;;;;30.37;18.80;;;;;;;6.54;93.82;98895.50;1690786;84;26006;-65
2023/11/11 04:52:06;;;;;;;27.95;18.10;;;;;;;6.51;93.96;98893.44;1690850;84;25469;-64
2023/11/11 04:54:33;;;;;;;33.92;18.15;;;;;;;6.49;93.99;98895.09;1690826;84;27817;-65
2023/11/11 04:57:00;;;;;;;33.42;18.62;;;;;;;6.48;93.99;98891.38;1690718;84;25629;-64
2023/11/11 04:59:28;;;;;;;29.07;17.30;;;;;;;6.45;94.26;98897.38;1690827;84;25534;-64
2023/11/11 05:01:56;;;;;;;35.45;18.90;;;;;;;6.42;94.27;98892.09;1690777;84;25648;-65
2023/11/11 05:04:23;;;;;;;30.52;18.42;;;;;;;6.41;94.56;98891.84;1690831;84;25599;-64
2023/11/11 05:06:51;;;;;;;33.08;19.48;;;;;;;6.40;94.62;98892.16;1690797;84;27421;-64
2023/11/11 05:09:18;;;;;;;31.40;18.90;;;;;;;6.38;94.62;98891.69;1690734;84;25427;-66
2023/11/11 05:11:47;;;;;;;33.63;20.15;;;;;;;6.36;94.69;98891.44;1690803;84;25505;-64
2023/11/11 05:14:18;;;;;;;27.27;18.42;;;;;;;6.38;94.83;98897.06;1691054;84;25639;-64
2023/11/11 05:16:50;;;;;;;28.67;19.67;;;;;;;6.35;94.89;98890.41;1690920;84;25591;-64
2023/11/11 05:19:14;;;;;;;31.30;20.00;;;;;;;6.35;95.08;98891.22;1690800;84;27721;-65
2023/11/11 05:21:41;;;;;;;29.40;19.12;;;;;;;6.36;95.23;98892.00;1690711;84;25662;-64
2023/11/11 05:24:08;;;;;;;32.55;19.60;;;;;;;6.36;95.21;98887.97;1691300;84;25474;-65
2023/11/11 05:26:43;;;;;;;29.92;18.80;;;;;;;6.38;95.40;98890.34;1690762;84;25717;-64
2023/11/11 05:29:10;;;;;;;32.17;20.37;;;;;;;6.39;95.38;98886.56;1690786;84;25609;-64
2023/11/11 05:31:37;;;;;;;29.98;19.92;;;;;;;6.42;95.51;98887.25;1690880;84;27329;-63
2023/11/11 05:34:04;;;;;;;36.50;19.98;;;;;;;6.43;95.57;98881.57;1690699;84;25447;-64
2023/11/11 05:36:34;;;;;;;29.02;18.52;;;;;;;6.45;95.57;98881.25;1690862;83;25572;-63
2023/11/11 05:39:01;;;;;;;;;;;;;;;6.45;95.35;98883.41;1693458;83;26029;-64
2023/11/11 05:41:31;;;;;;;29.98;18.73;;;;;;;6.45;95.29;98883.94;1691022;84;25591;-63
2023/11/11 05:43:58;;;;;;;28.23;17.55;;;;;;;6.42;95.26;98883.22;1690954;83;27925;-64
2023/11/11 05:46:25;;;;;;;36.53;20.25;;;;;;;6.40;95.63;98880.07;1690862;84;25455;-64
2023/11/11 05:48:52;;;;;;;30.02;19.27;;;;;;;6.38;95.40;98887.09;1690897;83;25625;-64
2023/11/11 05:51:19;;;;;;;34.25;19.60;;;;;;;6.39;95.55;98886.00;1690905;84;26268;-64
2023/11/11 05:53:48;;;;;;;30.97;19.07;;;;;;;6.40;95.48;98886.78;1691021;84;25410;-63
2023/11/11 05:56:15;;;;;;;28.52;18.25;;;;;;;6.40;95.52;98882.20;1690943;83;27333;-63
2023/11/11 05:58:43;;;;;;;31.52;19.65;;;;;;;6.41;95.64;98883.78;1690877;83;25633;-63
2023/11/11 06:01:09;;;;;;;32.33;19.40;;;;;;;6.42;95.77;98882.69;1690955;84;25558;-64
2023/11/11 06:03:38;;;;;;;30.55;19.80;;;;;;;6.43;95.68;98879.45;1690911;84;25635;-64
2023/11/11 06:06:05;;;;;;;34.45;20.43;;;;;;;6.44;95.85;98884.50;1691221;83;25608;-64
2023/11/11 06:08:32;;;;;;;33.53;19.73;;;;;;;6.44;95.82;98882.38;1690953;84;28203;-65
2023/11/11 06:10:59;;;;;;;35.58;20.72;;;;;;;6.44;95.81;98885.06;1690879;83;25632;-63
2023/11/11 06:13:25;;;;;;;32.73;20.40;;;;;;;6.44;95.91;98880.48;1690988;83;25584;-64
2023/11/11 06:15:52;;;;;;;32.48;20.45;;;;;;;6.47;95.98;98883.07;1690886;84;25630;-64
2023/11/11 06:18:19;;;;;;;32.78;21.02;;;;;;;6.46;95.82;98880.16;1690959;84;25625;-64
2023/11/11 06:20:45;;;;;;;32.80;20.62;;;;;;;6.46;95.87;98882.84;1690911;83;28352;-64
2023/11/11 06:23:12;;;;;;;32.45;20.77;;;;;;;6.47;95.95;98886.56;1690844;84;25867;-65
2023/11/11 06:25:39;;;;;;;32.75;19.98;;;;;;;6.49;95.99;98884.91;1690943;83;25478;-64
2023/11/11 06:28:05;;;;;;;36.45;22.00;;;;;;;6.50;96.17;98882.44;1690877;84;25617;-64
2023/11/11 06:30:32;;;;;;;38.60;21.27;;;;;;;6.53;96.22;98880.47;1690875;83;25632;-64
2023/11/11 06:33:00;;;;;;;34.80;21.10;;;;;;;6.56;96.34;98883.09;1690931;83;27337;-64
2023/11/11 06:35:28;;;;;;;35.90;21.27;;;;;;;6.57;96.37;98886.78;1679084;84;25613;-64
2023/11/11 06:37:56;;;;;;;29.63;20.20;;;;;;;6.60;96.28;98886.72;1690919;83;25559;-65
2023/11/11 06:40:28;;;;;;;33.18;19.80;;;;;;;6.63;96.45;98894.16;1690886;84;25579;-65
2023/11/11 06:42:55;;;;;;;32.40;21.65;;;;;;;6.65;96.28;98893.27;1690287;84;25632;-66
2023/11/11 06:45:23;;;;;;;34.85;21.15;;;;;;;6.67;96.44;98890.49;1691317;84;27345;-65
2023/11/11 06:47:50;;;;;;;33.28;22.52;;;;;;;6.69;96.30;98890.99;1691127;83;25415;-66
2023/11/11 06:50:17;;;;;;;34.50;21.40;;;;;;;6.69;96.19;98890.18;1691160;84;25223;-67
2023/11/11 06:52:45;;;;;;;38.95;22.17;;;;;;;6.67;96.02;98886.47;1690864;84;25732;-64
2023/11/11 06:55:12;;;;;;;32.83;21.00;;;;;;;6.69;96.14;98889.64;1690932;83;25577;-66
2023/11/11 06:57:38;;;;;;;34.58;20.80;;;;;;;6.73;96.22;98892.48;1690882;83;27695;-66
2023/11/11 07:00:10;;;;;;;35.70;22.32;;;;;;;6.75;96.50;98883.55;1690847;84;25631;-66
2023/11/11 07:02:37;;;;;;;36.80;20.80;;;;;;;6.77;96.54;98874.61;1690922;84;25443;-66
2023/11/11 07:05:10;;;;;;;35.60;22.40;;;;;;;6.81;96.52;98883.63;1690869;84;25631;-66
2023/11/11 07:07:35;;;;;;;36.58;22.13;;;;;;;6.83;96.39;98885.44;1690789;84;25417;-66
2023/11/11 07:10:02;;;;;;;35.15;21.42;;;;;;;6.84;96.36;98879.50;1690920;83;27665;-66
2023/11/11 07:12:30;;;;;;;40.33;22.48;;;;;;;6.85;96.10;98883.78;1690821;84;26002;-66
2023/11/11 07:14:57;;;;;;;36.30;22.67;;;;;;;6.82;95.82;98881.73;1690886;84;25451;-66
2023/11/11 07:17:25;;;;;;;35.13;21.85;;;;;;;6.84;96.06;98882.19;1690839;84;25738;-66
2023/11/11 07:19:52;;;;;;;34.73;22.13;;;;;;;6.86;96.26;98875.94;1690913;84;25639;-67
2023/11/11 07:22:18;;;;;;;37.63;22.60;;;;;;;6.88;96.30;98875.09;1690906;83;27242;-66
2023/11/11 07:24:47;;;;;;;34.15;21.12;;;;;;;6.91;96.55;98878.46;1690839;84;25670;-66
2023/11/11 07:27:14;;;;;;;29.77;20.02;;;;;;;6.94;96.73;98879.17;1690895;83;25509;-66
2023/11/11 07:29:43;;;;;;;40.60;22.58;;;;;;;6.99;96.80;98881.70;1690855;84;26022;-66
2023/11/11 07:32:11;;;;;;;36.15;22.27;;;;;;;7.02;96.61;98873.56;1690992;83;25501;-66
2023/11/11 07:34:38;;;;;;;37.53;22.42;;;;;;;7.03;96.27;98880.50;1690873;84;27035;-65
2023/11/11 07:37:06;;;;;;;35.30;22.32;;;;;;;7.02;96.26;98881.06;1690758;84;25599;-66
2023/11/11 07:39:33;;;;;;;35.48;21.33;;;;;;;7.05;96.35;98887.15;1690872;84;25473;-65
2023/11/11 07:42:00;;;;;;;34.85;20.62;;;;;;;7.04;95.62;98882.87;1690842;84;25667;-66
2023/11/11 07:44:27;;;;;;;31.05;20.00;;;;;;;7.02;95.81;98882.41;1690899;84;25635;-65
2023/11/11 07:46:54;;;;;;;35.80;22.62;;;;;;;7.03;95.62;98880.50;1690926;84;27214;-66
2023/11/11 07:49:22;;;;;;;48.83;30.70;;;;;;;7.02;95.83;98874.91;1690785;84;25404;-67
2023/11/11 07:51:49;;;;;;;42.75;25.23;;;;;;;7.05;96.28;98882.34;1690859;84;25423;-67
2023/11/11 07:54:16;;;;;;;39.38;24.35;;;;;;;7.08;96.28;98883.02;1690833;84;25693;-66
2023/11/11 07:56:45;;;;;;;42.73;23.92;;;;;;;7.09;96.51;98886.73;1690983;84;25404;-67
2023/11/11 07:59:14;;;;;;;37.80;22.75;;;;;;;7.10;96.04;98884.86;1691023;84;27289;-68
2023/11/11 08:01:41;;;;;;;35.03;22.62;;;;;;;7.09;95.81;98890.77;1690861;84;25411;-67
2023/11/11 08:04:08;;;;;;;34.98;22.82;;;;;;;7.06;95.55;98889.27;1690898;84;25640;-68
2023/11/11 08:06:36;;;;;;;38.58;22.15;;;;;;;7.07;95.91;98892.99;1690832;84;25951;-66
2023/11/11 08:09:03;;;;;;;36.38;22.85;;;;;;;7.09;95.81;98892.67;1690862;84;25400;-66
2023/11/11 08:11:30;;;;;;;40.75;23.02;;;;;;;7.09;96.02;98884.05;1690863;84;27708;-66
2023/11/11 08:13:57;;;;;;;39.35;23.87;;;;;;;7.13;95.95;98889.56;1690760;84;25624;-65
2023/11/11 08:16:23;;;;;;;35.15;22.48;;;;;;;7.14;96.03;98883.09;1690815;84;25490;-66
2023/11/11 08:18:50;;;;;;;37.10;23.15;;;;;;;7.13;95.55;98880.72;1690819;84;25942;-67
2023/11/11 08:21:19;;;;;;;37.70;22.48;;;;;;;7.13;95.75;98888.23;1690882;84;25515;-65
2023/11/11 08:23:45;;;;;;;39.95;24.27;;;;;;;7.17;96.00;98893.75;1690794;84;27360;-66
2023/11/11 08:26:11;;;;;;;38.70;22.42;;;;;;;7.22;96.45;98890.89;1690814;84;25605;-65
2023/11/11 08:28:38;;;;;;;37.05;22.35;;;;;;;7.25;96.31;98892.94;1690815;84;25427;-66
2023/11/11 08:31:05;;;;;;;36.03;22.40;;;;;;;7.28;96.47;98884.23;1690005;84;25631;-66
2023/11/11 08:33:31;;;;;;;35.83;22.50;;;;;;;7.30;96.17;98882.02;1689152;84;25585;-67
2023/11/11 08:35:59;;;;;;;40.05;25.17;;;;;;;7.34;96.56;98888.34;1689106;84;27256;-67
2023/11/11 08:38:25;;;;;;;35.65;24.27;;;;;;;7.40;96.87;98888.39;1688991;85;25617;-67
2023/11/11 08:40:53;;;;;;;39.60;24.95;;;;;;;7.44;96.65;98888.53;1689141;85;25723;-66
2023/11/11 08:43:21;;;;;;;35.58;22.20;;;;;;;7.43;95.69;98886.41;1689063;85;25496;-67
2023/11/11 08:45:48;;;;;;;35.63;22.52;;;;;;;7.43;95.31;98897.16;1689103;85;25546;-67
2023/11/11 08:48:15;;;;;;;33.80;22.13;;;;;;;7.44;95.77;98896.06;1689167;85;27939;-66
2023/11/11 08:50:42;;;;;;;34.75;22.25;;;;;;;7.46;96.00;98892.49;1689020;85;25618;-66
2023/11/11 08:53:10;;;;;;;32.93;22.82;;;;;;;7.50;95.76;98890.51;1689102;85;25435;-66
2023/11/11 08:55:37;;;;;;;34.90;22.58;;;;;;;7.51;95.96;98889.38;1689084;84;26632;-67
2023/11/11 08:58:05;;;;;;;36.42;22.77;;;;;;;7.51;95.30;98891.53;1689103;85;25495;-67
2023/11/11 09:00:34;;;;;;;37.98;22.80;;;;;;;7.51;95.43;98892.88;1689099;84;28349;-66
2023/11/11 09:03:04;;;;;;;34.80;21.60;;;;;;;7.54;95.80;98892.20;1688994;84;25563;-66
2023/11/11 09:05:31;;;;;;;35.40;21.85;;;;;;;7.59;95.67;98888.56;1689160;85;25646;-67
2023/11/11 09:07:58;;;;;;;36.90;22.77;;;;;;;7.62;95.70;98883.88;1689008;85;25728;-68
2023/11/11 09:10:27;;;;;;;37.75;23.20;;;;;;;7.65;95.68;98881.89;1689104;85;25479;-67
2023/11/11 09:12:53;;;;;;;36.55;23.45;;;;;;;7.70;95.95;98875.55;1688974;84;27298;-68
2023/11/11 09:15:21;;;;;;;36.40;22.62;;;;;;;7.75;96.09;98877.49;1689033;85;25406;-67
2023/11/11 09:17:48;;;;;;;34.03;21.60;;;;;;;7.81;95.87;98877.52;1689267;85;25607;-67
2023/11/11 09:20:18;;;;;;;35.08;21.82;;;;;;;7.85;95.72;98880.38;1689063;84;26562;-68
2023/11/11 09:22:44;;;;;;;36.03;22.95;;;;;;;7.90;95.81;98874.00;1689384;84;25614;-69
2023/11/11 09:25:14;;;;;;;35.45;22.55;;;;;;;7.92;95.12;98869.89;1689082;85;27334;-68
2023/11/11 09:27:41;;;;;;;35.40;22.17;;;;;;;7.94;95.27;98870.91;1688791;84;28963;-68
2023/11/11 09:30:10;;;;;;;37.50;24.18;;;;;;;7.93;95.04;98866.06;1689133;84;25470;-68
2023/11/11 09:32:36;;;;;;;36.33;23.10;;;;;;;7.96;95.20;98861.94;1690770;84;25628;-69
2023/11/11 09:35:05;;;;;;;37.55;24.77;;;;;;;7.99;95.21;98867.46;1690812;84;25616;-68
2023/11/11 09:37:32;;;;;;;37.42;22.80;;;;;;;8.01;95.10;98865.23;1690796;84;27337;-68
2023/11/11 09:40:03;;;;;;;38.92;23.87;;;;;;;8.03;94.76;98860.86;1690714;84;25612;-67
2023/11/11 09:42:37;;;;;;;34.73;21.60;;;;;;;8.03;94.55;98868.38;1690931;83;25465;-69
2023/11/11 09:45:06;;;;;;;33.05;20.50;;;;;;;8.03;94.33;98868.38;1690856;84;25583;-68
2023/11/11 09:47:34;;;;;;;34.20;21.00;;;;;;;8.02;94.13;98868.73;1691024;83;25678;-68
2023/11/11 09:50:02;;;;;;;35.08;22.45;;;;;;;8.01;94.02;98867.92;1690783;84;27336;-68
2023/11/11 09:52:34;;;;;;;35.73;21.65;;;;;;;8.01;93.89;98865.79;1678949;84;25509;-67
2023/11/11 09:55:06;;;;;;;31.37;22.22;;;;;;;7.98;93.77;98850.28;1690850;83;25407;-68
2023/11/11 09:57:34;;;;;;;33.02;21.95;;;;;;;7.97;93.77;98846.03;1690790;84;25671;-66
2023/11/11 10:00:05;;;;;;;35.70;23.10;;;;;;;7.98;94.34;98842.98;1690995;83;25426;-67
2023/11/11 10:02:33;;;;;;;31.15;21.50;;;;;;;8.03;94.82;98839.31;1690836;83;27677;-67
2023/11/11 10:05:01;;;;;;;33.33;22.62;;;;;;;8.04;95.10;98839.00;1690726;84;25234;-67
2023/11/11 10:07:28;;;;;;;32.93;20.75;;;;;;;8.09;94.68;98843.41;1690786;83;25526;-66
2023/11/11 10:09:57;;;;;;;34.05;21.20;;;;;;;8.07;94.02;98838.91;1690734;83;26013;-66
2023/11/11 10:12:25;;;;;;;38.13;22.37;;;;;;;8.07;94.02;98833.53;1690835;84;25498;-68
2023/11/11 10:14:52;;;;;;;36.55;21.90;;;;;;;8.10;94.40;98834.20;1690817;84;27351;-68
2023/11/11 10:17:23;;;;;;;37.53;24.37;;;;;;;8.16;94.68;98830.77;1690711;83;25494;-67
2023/11/11 10:19:50;;;;;;;38.35;23.98;;;;;;;8.21;94.89;98831.35;1690851;84;25676;-68
2023/11/11 10:22:16;;;;;;;37.60;24.45;;;;;;;8.25;94.89;98834.17;1690839;83;26028;-67
2023/11/11 10:24:46;;;;;;;31.57;21.15;;;;;;;8.28;94.66;98830.83;1690991;84;25585;-68
2023/11/11 10:27:19;;;;;;;34.55;23.12;;;;;;;8.32;94.43;98830.95;1690965;84;28336;-68
2023/11/11 10:29:47;;;;;;;33.55;22.17;;;;;;;8.34;94.54;98826.02;1690984;83;25589;-70
2023/11/11 10:32:14;;;;;;;36.08;24.65;;;;;;;8.39;94.79;98822.59;1689731;83;25474;-67
2023/11/11 10:34:43;;;;;;;35.90;23.18;;;;;;;8.45;94.99;98813.77;1676642;85;25619;-70
2023/11/11 10:37:11;;;;;;;36.75;23.42;;;;;;;8.51;94.99;98815.14;1689013;84;25416;-73
2023/11/11 10:39:39;;;;;;;36.93;23.90;;;;;;;8.55;94.53;98814.70;1689147;85;26895;-66
2023/11/11 10:42:06;;;;;;;35.73;24.35;;;;;;;8.59;94.08;98819.64;1688723;84;25651;-67
2023/11/11 10:44:33;;;;;;;34.43;23.20;;;;;;;8.61;93.77;98822.02;1688653;85;25625;-65
2023/11/11 10:47:02;;;;;;;38.48;24.02;;;;;;;8.62;93.72;98817.43;1688611;84;26538;-66
2023/11/11 10:49:29;;;;;;;35.40;21.73;;;;;;;8.65;93.58;98816.74;1688657;85;25637;-65
2023/11/11 10:51:59;;;;;;;34.13;22.67;;;;;;;8.68;93.13;98813.39;1688736;85;27349;-65
2023/11/11 10:54:27;;;;;;;37.88;23.02;;;;;;;8.69;92.95;98817.11;1688599;85;25589;-68
2023/11/11 10:57:00;;;;;;;75.70;47.23;;;;;;;8.70;92.98;98815.19;1689013;84;25593;-72
2023/11/11 10:59:35;;;;;;;44.00;27.22;;;;;;;8.72;93.03;98811.63;1689288;84;25191;-74
2023/11/11 11:02:02;;;;;;;36.58;24.02;;;;;;;8.73;92.88;98802.39;1688845;85;25670;-73
2023/11/11 11:04:33;;;;;;;36.23;23.70;;;;;;;8.71;92.59;98808.12;1688822;84;27869;-75
2023/11/11 11:07:09;;;;;;;;;;;;;;;8.73;92.56;98809.91;1691161;84;25779;-72
2023/11/11 11:09:51;;;;;;;33.42;21.73;;;;;;;8.73;92.44;98815.31;1688878;84;25588;-73
2023/11/11 11:12:45;;;;;;;33.85;21.55;;;;;;;8.72;92.56;98811.63;1688449;84;25617;-73
2023/11/11 11:15:13;;;;;;;34.88;21.65;;;;;;;8.74;92.62;98810.16;1688773;84;25580;-72
2023/11/11 11:17:45;;;;;;;37.42;21.75;;;;;;;8.75;92.22;98817.67;1688807;85;27367;-70
2023/11/11 11:20:18;;;;;;;32.78;21.50;;;;;;;8.72;92.18;98817.02;1688690;84;25672;-72
2023/11/11 11:22:49;;;;;;;35.80;22.17;;;;;;;8.75;92.63;98806.89;1688891;85;25614;-74
2023/11/11 11:25:45;;;;;;;32.45;22.02;;;;;;;8.80;92.76;98810.72;1687199;85;25605;-75
2023/11/11 11:28:21;;;;;;;33.60;21.48;;;;;;;8.86;92.73;98811.33;1689262;84;25646;-74
2023/11/11 11:30:55;;;;;;;32.98;21.23;;;;;;;8.92;93.39;98793.25;1688780;84;28019;-64